CheckWX is a tool to help pilots better visualize weather data.  It is not intended as a substitute for an official pre-flight weather briefing.

19:01:25 UTC

I75 METAR
Osceola Municipal Airport
Osceola, Iowa, USA
Current

6 mins ago

KI75 191855Z AUTO 07008KT 5SM HZ M05/M09 A3040 RMK AO2 T10481094
Observed
Feb-19 @ 18:55 UTC
Wind
  • 070° at 8 KTS
Visibility
5 SM
Conditions
Haze
Temperature
-5°C / 23°F
Dewpoint
-9°C / 16°F
Humidity
74%
Altimeter
30.4" Hg
Pressure
1029.41 hPa
Previous

26 mins ago

KI75 191835Z AUTO 06007KT 5SM HZ M05/M10 A3042 RMK AO2 T10551099
Observed
Feb-19 @ 18:35 UTC
Wind
  • 060° at 7 KTS
Visibility
5 SM
Conditions
Haze
Temperature
-6°C / 21°F
Dewpoint
-10°C / 14°F
Humidity
74%
Altimeter
30.42" Hg
Pressure
1030.11 hPa
Previous

46 mins ago

KI75 191815Z AUTO 06007KT 5SM HZ M06/M10 A3045 RMK AO2 T10571101
Observed
Feb-19 @ 18:15 UTC
Wind
  • 060° at 7 KTS
Visibility
5 SM
Conditions
Haze
Temperature
-6°C / 21°F
Dewpoint
-10°C / 14°F
Humidity
74%
Altimeter
30.45" Hg
Pressure
1031.11 hPa